createdAt,value
2019-02-26T00:01:16.399Z,4.43
2019-02-26T00:03:49.556Z,4.83
2019-02-26T00:06:27.854Z,5.07
2019-02-26T00:09:06.181Z,6.67
2019-02-26T00:11:40.609Z,6.37
2019-02-26T00:14:17.700Z,7.40
2019-02-26T00:16:52.426Z,6.13
2019-02-26T00:19:26.076Z,5.72
2019-02-26T00:21:58.640Z,4.97
2019-02-26T00:24:33.019Z,5.50
2019-02-26T00:27:09.621Z,5.60
2019-02-26T00:29:44.316Z,5.55
2019-02-26T00:32:19.658Z,6.47
2019-02-26T00:34:55.354Z,10.83
2019-02-26T00:37:28.448Z,8.10
2019-02-26T00:40:04.168Z,5.80
2019-02-26T00:42:39.161Z,5.43
2019-02-26T00:45:13.772Z,5.40
2019-02-26T00:47:52.088Z,5.10
2019-02-26T00:50:28.136Z,5.00
2019-02-26T00:53:03.436Z,6.63
2019-02-26T00:55:39.628Z,13.63
2019-02-26T00:58:12.872Z,7.33
2019-02-26T01:00:44.609Z,11.50
2019-02-26T01:03:16.632Z,8.13
2019-02-26T01:05:48.379Z,7.53
2019-02-26T01:08:20.149Z,7.50
2019-02-26T01:10:51.849Z,6.70
2019-02-26T01:13:25.644Z,6.92
2019-02-26T01:15:56.679Z,6.95
2019-02-26T01:18:28.980Z,5.63
2019-02-26T01:21:02.541Z,5.65
2019-02-26T01:23:34.162Z,4.92
2019-02-26T01:26:05.679Z,4.72
2019-02-26T01:28:39.421Z,4.85
2019-02-26T01:31:10.434Z,5.03
2019-02-26T01:33:42.131Z,5.65
2019-02-26T01:36:14.458Z,4.62
2019-02-26T01:38:48.747Z,27.65
2019-02-26T01:41:22.262Z,20.15
2019-02-26T01:43:53.748Z,13.32
2019-02-26T01:46:25.618Z,7.12
2019-02-26T01:48:58.013Z,5.87
2019-02-26T01:51:30.571Z,7.58
2019-02-26T01:54:02.131Z,6.87
2019-02-26T01:56:34.030Z,5.25
2019-02-26T01:59:06.999Z,9.98
2019-02-26T02:01:42.021Z,4.92
2019-02-26T02:04:12.793Z,4.78
2019-02-26T02:07:06.327Z,16.67
2019-02-26T02:09:38.688Z,5.33
2019-02-26T02:12:11.125Z,5.40
2019-02-26T02:14:43.148Z,4.62
2019-02-26T02:22:56.037Z,9.30
2019-02-26T02:25:31.110Z,6.50
2019-02-26T02:28:02.813Z,4.70
2019-02-26T02:30:38.793Z,5.30
2019-02-26T02:33:08.974Z,5.10
2019-02-26T02:35:40.812Z,4.83
2019-02-26T02:38:12.419Z,4.75
2019-02-26T02:40:46.255Z,4.62
2019-02-26T02:43:18.064Z,4.85
2019-02-26T02:45:53.159Z,4.65
2019-02-26T02:48:24.481Z,4.95
2019-02-26T02:50:56.151Z,4.58
2019-02-26T02:53:30.185Z,4.78
2019-02-26T02:56:03.543Z,4.40
2019-02-26T02:58:34.211Z,4.67
2019-02-26T03:01:06.106Z,4.90
2019-02-26T03:03:37.876Z,4.78
2019-02-26T03:06:10.338Z,5.45
2019-02-26T03:08:45.108Z,5.28
2019-02-26T03:11:16.388Z,18.42
2019-02-26T03:13:49.309Z,13.95
2019-02-26T03:16:23.494Z,7.28
2019-02-26T03:18:54.647Z,4.72
2019-02-26T03:21:27.712Z,3.92
2019-02-26T03:24:00.873Z,3.70
2019-02-26T03:26:33.098Z,3.35
2019-02-26T03:29:04.691Z,3.35
2019-02-26T03:31:41.261Z,3.42
2019-02-26T03:34:14.655Z,3.22
2019-02-26T03:36:45.633Z,3.02
2019-02-26T03:39:16.807Z,3.00
2019-02-26T03:41:49.074Z,2.98
2019-02-26T03:44:21.467Z,3.05
2019-02-26T03:46:53.367Z,6.37
2019-02-26T03:49:27.111Z,2.70
2019-02-26T03:52:00.081Z,2.90
2019-02-26T03:54:31.651Z,2.83
2019-02-26T03:57:03.599Z,2.92
2019-02-26T03:59:35.431Z,2.98
2019-02-26T04:02:07.267Z,3.87
2019-02-26T04:04:40.624Z,3.87
2019-02-26T04:07:12.215Z,3.75
2019-02-26T04:09:44.330Z,5.42
2019-02-26T04:12:18.430Z,5.50
2019-02-26T04:14:50.960Z,5.50
2019-02-26T04:17:25.460Z,5.35
2019-02-26T04:19:55.890Z,4.87
2019-02-26T04:22:28.961Z,5.00
2019-02-26T04:25:11.485Z,5.83
2019-02-26T04:28:54.240Z,5.40
2019-02-26T04:32:29.429Z,4.33
2019-02-26T04:36:14.401Z,3.70
2019-02-26T04:40:01.455Z,4.55
2019-02-26T04:43:25.418Z,3.83
2019-02-26T04:46:53.923Z,4.53
2019-02-26T04:49:28.135Z,4.10
2019-02-26T04:51:59.173Z,3.52
2019-02-26T04:54:33.115Z,3.87
2019-02-26T04:57:04.126Z,17.60
2019-02-26T04:59:37.983Z,24.65
2019-02-26T05:02:09.369Z,25.65
2019-02-26T05:04:42.228Z,33.13
2019-02-26T05:07:16.271Z,19.27
2019-02-26T05:09:49.586Z,9.88
2019-02-26T05:12:20.712Z,9.93
2019-02-26T05:14:52.114Z,11.78
2019-02-26T05:17:26.376Z,7.00
2019-02-26T05:19:57.093Z,7.20
2019-02-26T05:22:30.873Z,8.03
2019-02-26T05:25:04.644Z,7.42
2019-02-26T05:27:36.362Z,9.80
2019-02-26T05:30:09.768Z,8.08
2019-02-26T05:32:42.490Z,8.45
2019-02-26T05:35:16.907Z,5.80
2019-02-26T05:37:48.022Z,4.92
2019-02-26T05:40:22.266Z,3.85
2019-02-26T05:42:55.568Z,4.20
2019-02-26T05:45:29.310Z,3.77
2019-02-26T05:48:00.307Z,20.68
2019-02-26T05:50:34.736Z,6.33
2019-02-26T05:53:07.532Z,5.83
2019-02-26T05:55:38.384Z,5.15
2019-02-26T05:58:12.455Z,4.95
2019-02-26T06:00:46.669Z,6.65
2019-02-26T06:03:18.846Z,20.60
2019-02-26T06:05:51.877Z,12.37
2019-02-26T06:08:26.712Z,9.58
2019-02-26T06:10:57.326Z,10.48
2019-02-26T06:13:31.609Z,28.65
2019-02-26T06:16:04.793Z,12.07
2019-02-26T06:18:35.985Z,9.08
2019-02-26T06:21:13.167Z,6.15
2019-02-26T06:23:46.128Z,4.92
2019-02-26T06:26:18.056Z,5.12
2019-02-26T06:28:55.586Z,5.65
2019-02-26T06:31:27.187Z,4.92
2019-02-26T06:34:01.485Z,5.83
2019-02-26T06:36:32.569Z,4.65
2019-02-26T06:39:06.022Z,5.72
2019-02-26T06:41:39.557Z,7.63
2019-02-26T06:44:11.309Z,13.23
2019-02-26T06:46:43.083Z,22.97
2019-02-26T06:49:16.839Z,10.57
2019-02-26T06:51:49.825Z,8.50
2019-02-26T06:54:24.367Z,9.10
2019-02-26T06:56:55.869Z,6.67
2019-02-26T06:59:34.286Z,7.23
2019-02-26T07:02:08.795Z,8.77
2019-02-26T07:04:40.256Z,31.23
2019-02-26T07:07:14.319Z,70.73
2019-02-26T07:09:45.587Z,15.33
2019-02-26T07:12:19.436Z,14.63
2019-02-26T07:14:51.360Z,13.60
2019-02-26T07:17:24.115Z,13.37
2019-02-26T07:19:57.714Z,17.80
2019-02-26T07:22:32.557Z,10.63
2019-02-26T07:25:05.945Z,24.57
2019-02-26T07:27:38.432Z,14.60
2019-02-26T07:30:10.803Z,11.20
2019-02-26T07:32:45.108Z,10.07
2019-02-26T07:35:16.618Z,6.47
2019-02-26T07:37:48.634Z,5.17
2019-02-26T07:40:21.520Z,6.40
2019-02-26T07:42:53.068Z,7.10
2019-02-26T07:45:27.326Z,6.53
2019-02-26T07:47:59.095Z,6.43
2019-02-26T07:50:37.055Z,6.70
2019-02-26T07:53:05.308Z,5.97
2019-02-26T07:55:38.208Z,6.27
2019-02-26T07:58:11.551Z,18.13
2019-02-26T08:00:49.119Z,13.50
2019-02-26T08:03:19.339Z,14.00
2019-02-26T08:05:51.000Z,12.10
2019-02-26T08:08:22.976Z,9.30
2019-02-26T08:10:55.017Z,37.90
2019-02-26T08:13:29.103Z,26.00
2019-02-26T08:16:02.329Z,15.57
2019-02-26T08:18:33.691Z,22.90
2019-02-26T08:21:05.545Z,15.63
2019-02-26T08:23:37.439Z,7.90
2019-02-26T08:26:09.306Z,12.43
2019-02-26T08:28:43.248Z,12.93
2019-02-26T08:31:16.040Z,10.07
2019-02-26T08:33:50.927Z,8.13
2019-02-26T08:36:21.771Z,92.17
2019-02-26T08:38:56.455Z,51.40
2019-02-26T08:41:27.001Z,40.23
2019-02-26T08:43:58.963Z,107.43
2019-02-26T08:46:30.942Z,53.90
2019-02-26T08:49:08.264Z,32.20
2019-02-26T08:51:38.882Z,43.63
2019-02-26T08:54:20.343Z,16.60
2019-02-26T08:56:44.692Z,9.30
2019-02-26T08:59:17.770Z,29.90
2019-02-26T09:01:50.068Z,19.80
2019-02-26T09:04:23.797Z,28.60
2019-02-26T09:06:57.081Z,23.90
2019-02-26T09:09:30.326Z,14.97
2019-02-26T09:12:03.379Z,10.17
2019-02-26T09:14:37.614Z,7.53
2019-02-26T09:17:09.199Z,5.50
2019-02-26T09:19:41.126Z,8.00
2019-02-26T09:22:14.948Z,9.53
2019-02-26T09:24:49.301Z,14.17
2019-02-26T09:27:20.417Z,8.90
2019-02-26T09:29:52.199Z,4.67
2019-02-26T09:32:23.899Z,4.17
2019-02-26T09:34:57.410Z,4.37
2019-02-26T09:37:29.573Z,4.60
2019-02-26T09:40:02.819Z,5.13
2019-02-26T09:42:34.832Z,5.27
2019-02-26T09:45:07.782Z,6.87
2019-02-26T09:47:39.976Z,5.43
2019-02-26T09:50:12.936Z,5.70
2019-02-26T09:52:47.778Z,6.13
2019-02-26T09:55:19.931Z,4.80
2019-02-26T09:57:51.904Z,6.70
2019-02-26T10:00:26.944Z,6.17
2019-02-26T10:02:57.672Z,5.73
2019-02-26T10:05:30.257Z,5.30
2019-02-26T10:08:04.953Z,5.63
2019-02-26T10:10:39.050Z,5.50
2019-02-26T10:13:09.640Z,5.93
2019-02-26T10:15:44.845Z,6.43
2019-02-26T10:18:16.841Z,6.03
2019-02-26T10:20:50.444Z,6.40
2019-02-26T10:23:24.062Z,6.40
2019-02-26T10:26:00.200Z,6.43
2019-02-26T10:28:35.157Z,6.40
2019-02-26T10:31:08.545Z,6.70
2019-02-26T10:33:41.120Z,6.37
2019-02-26T10:36:15.525Z,6.33
2019-02-26T10:38:46.655Z,6.73
2019-02-26T10:41:18.687Z,7.17
2019-02-26T10:43:50.413Z,6.70
2019-02-26T10:46:22.246Z,6.00
2019-02-26T10:48:54.080Z,5.40
2019-02-26T10:51:27.234Z,4.70
2019-02-26T10:53:59.858Z,4.73
2019-02-26T10:56:36.822Z,5.23
2019-02-26T10:59:09.381Z,6.20
2019-02-26T11:01:40.026Z,6.50
2019-02-26T11:04:11.864Z,5.97
2019-02-26T11:06:45.197Z,7.80
2019-02-26T11:09:19.255Z,6.90
2019-02-26T11:11:51.252Z,6.63
2019-02-26T11:14:23.129Z,8.37
2019-02-26T11:16:54.947Z,12.00
2019-02-26T11:19:32.905Z,12.57
2019-02-26T11:22:04.166Z,12.80
2019-02-26T11:24:36.181Z,6.53
2019-02-26T11:27:07.846Z,5.87
2019-02-26T11:29:40.734Z,6.40
2019-02-26T11:32:15.063Z,12.03
2019-02-26T11:34:45.934Z,5.53
2019-02-26T11:37:20.153Z,5.60
2019-02-26T11:39:52.683Z,9.20
2019-02-26T11:42:26.084Z,6.63
2019-02-26T11:44:58.563Z,6.37
2019-02-26T11:47:32.358Z,5.57
2019-02-26T11:50:07.113Z,5.00
2019-02-26T11:52:38.928Z,11.03
2019-02-26T11:55:11.568Z,7.60
2019-02-26T11:57:45.687Z,6.00
2019-02-26T12:00:31.326Z,7.50
2019-02-26T12:02:59.753Z,6.80
2019-02-26T12:05:35.461Z,6.67
2019-02-26T12:08:05.029Z,6.40
2019-02-26T12:10:37.969Z,6.70
2019-02-26T12:13:10.920Z,6.53
2019-02-26T12:15:43.146Z,7.77
2019-02-26T12:18:17.406Z,6.57
2019-02-26T12:20:48.910Z,6.73
2019-02-26T12:23:22.751Z,6.70
2019-02-26T12:25:55.501Z,8.27
2019-02-26T12:28:29.139Z,8.57
2019-02-26T12:31:04.276Z,8.40
2019-02-26T12:33:35.985Z,7.03
2019-02-26T12:36:09.808Z,8.00
2019-02-26T12:38:42.578Z,9.47
2019-02-26T12:41:15.963Z,7.77
2019-02-26T12:43:48.133Z,9.33
2019-02-26T12:46:21.709Z,6.20
2019-02-26T12:48:53.887Z,6.10
2019-02-26T12:51:28.098Z,8.27
2019-02-26T12:54:01.211Z,8.40
2019-02-26T12:56:34.116Z,5.97
2019-02-26T12:59:07.611Z,6.17
2019-02-26T13:01:42.176Z,4.23
2019-02-26T13:04:16.673Z,4.77
2019-02-26T13:10:22.342Z,8.27
2019-02-26T13:12:59.306Z,6.07
2019-02-26T13:15:30.353Z,6.33
2019-02-26T13:18:02.097Z,6.70
2019-02-26T13:20:33.979Z,4.80
2019-02-26T13:25:39.419Z,5.50
2019-02-26T13:28:11.541Z,5.20
2019-02-26T13:30:43.444Z,4.40
2019-02-26T13:33:17.845Z,3.57
2019-02-26T13:35:56.298Z,9.90
2019-02-26T13:38:24.875Z,8.90
2019-02-26T13:41:24.370Z,3.83
2019-02-26T13:43:30.650Z,4.43
2019-02-26T13:46:02.360Z,3.70
2019-02-26T13:48:33.956Z,4.13
2019-02-26T13:51:06.088Z,3.60
2019-02-26T13:53:37.829Z,3.90
2019-02-26T13:56:09.995Z,3.83
2019-02-26T13:58:42.540Z,3.00
2019-02-26T14:01:15.037Z,3.53
2019-02-26T14:03:46.642Z,4.20
2019-02-26T14:06:18.575Z,3.87
2019-02-26T14:08:51.106Z,3.50
2019-02-26T14:11:23.022Z,3.50
2019-02-26T14:13:54.955Z,2.50
2019-02-26T14:16:32.423Z,4.23
2019-02-26T14:19:00.492Z,5.07
2019-02-26T14:21:32.667Z,4.23
2019-02-26T14:24:04.932Z,6.57
2019-02-26T14:26:37.120Z,5.87
2019-02-26T14:29:09.349Z,5.23
2019-02-26T14:31:43.604Z,4.00
2019-02-26T14:34:15.597Z,5.50
2019-02-26T14:36:47.700Z,3.77
2019-02-26T14:39:19.539Z,3.37
2019-02-26T14:41:51.388Z,3.13
2019-02-26T14:44:23.372Z,4.07
2019-02-26T14:46:55.329Z,3.70
2019-02-26T14:49:27.160Z,6.17
2019-02-26T14:51:59.034Z,5.87
2019-02-26T14:54:30.976Z,3.50
2019-02-26T14:57:03.253Z,3.10
2019-02-26T14:59:35.231Z,3.13
2019-02-26T15:02:06.961Z,3.67
2019-02-26T15:04:38.549Z,3.70
2019-02-26T15:07:10.619Z,5.47
2019-02-26T15:09:43.037Z,4.57
2019-02-26T15:12:14.717Z,3.90
2019-02-26T15:14:48.793Z,4.90
2019-02-26T15:17:20.585Z,4.63
2019-02-26T15:19:53.316Z,4.60
2019-02-26T15:22:25.089Z,4.20
2019-02-26T15:24:57.277Z,3.93
2019-02-26T15:27:36.935Z,4.03
2019-02-26T15:30:02.707Z,3.73
2019-02-26T15:32:37.636Z,3.60
2019-02-26T15:35:10.130Z,3.80
2019-02-26T15:37:42.123Z,5.90
2019-02-26T15:40:15.485Z,5.00
2019-02-26T15:42:47.614Z,4.20
2019-02-26T15:45:24.922Z,4.27
2019-02-26T15:47:56.896Z,5.43
2019-02-26T15:50:30.469Z,7.07
2019-02-26T15:53:02.366Z,10.53
2019-02-26T15:55:34.220Z,7.33
2019-02-26T15:58:06.910Z,10.77
2019-02-26T16:00:38.808Z,8.10
2019-02-26T16:03:10.847Z,5.90
2019-02-26T16:05:43.091Z,8.43
2019-02-26T16:08:15.112Z,6.23
2019-02-26T16:10:47.002Z,8.53
2019-02-26T16:13:19.541Z,13.53
2019-02-26T16:15:51.601Z,13.83
2019-02-26T16:18:24.220Z,22.40
2019-02-26T16:20:56.614Z,47.43
2019-02-26T16:23:28.366Z,33.00
2019-02-26T16:26:00.815Z,23.10
2019-02-26T16:28:33.092Z,6.40
2019-02-26T16:31:05.380Z,4.23
2019-02-26T16:33:37.639Z,2.87
2019-02-26T16:36:09.813Z,2.90
2019-02-26T16:38:41.941Z,2.70
2019-02-26T16:41:15.304Z,4.60
2019-02-26T16:43:47.393Z,2.77
2019-02-26T16:46:20.018Z,2.73
2019-02-26T16:48:53.590Z,3.20
2019-02-26T16:51:26.599Z,2.90
2019-02-26T16:53:59.250Z,3.30
2019-02-26T16:56:31.720Z,3.40
2019-02-26T16:59:07.614Z,10.97
2019-02-26T17:01:38.730Z,12.10
2019-02-26T17:04:11.932Z,14.03
2019-02-26T17:06:44.341Z,13.00
2019-02-26T17:09:16.426Z,8.80
2019-02-26T17:11:48.953Z,6.60
2019-02-26T17:14:22.017Z,7.20
2019-02-26T17:16:54.307Z,7.27
2019-02-26T17:19:26.951Z,6.20
2019-02-26T17:21:59.162Z,7.80
2019-02-26T17:24:32.701Z,6.43
2019-02-26T17:27:06.456Z,5.67
2019-02-26T17:29:40.756Z,5.80
2019-02-26T17:32:12.757Z,5.07
2019-02-26T17:34:44.755Z,5.87
2019-02-26T17:37:17.651Z,4.77
2019-02-26T17:39:49.543Z,4.57
2019-02-26T17:42:22.406Z,4.10
2019-02-26T17:44:55.275Z,4.03
2019-02-26T17:47:28.231Z,4.17
2019-02-26T17:50:01.020Z,9.40
2019-02-26T17:52:33.847Z,7.73
2019-02-26T17:55:09.168Z,10.30
2019-02-26T17:57:40.538Z,15.27
2019-02-26T18:00:15.709Z,20.73
2019-02-26T18:02:48.672Z,25.27
2019-02-26T18:05:21.056Z,21.13
2019-02-26T18:07:54.023Z,17.70
2019-02-26T18:10:26.804Z,13.73
2019-02-26T18:13:00.232Z,13.33
2019-02-26T18:15:32.728Z,12.80
2019-02-26T18:18:05.051Z,11.97
2019-02-26T18:20:37.579Z,13.87
2019-02-26T18:23:10.391Z,21.80
2019-02-26T18:25:43.314Z,21.27
2019-02-26T18:28:15.743Z,17.23
2019-02-26T18:30:47.939Z,14.80
2019-02-26T18:33:21.625Z,9.23
2019-02-26T18:35:54.597Z,6.43
2019-02-26T18:38:28.237Z,5.10
2019-02-26T18:41:01.280Z,4.93
2019-02-26T18:43:34.355Z,4.50
2019-02-26T18:46:07.110Z,5.37
2019-02-26T18:48:40.774Z,5.50
2019-02-26T18:51:15.322Z,8.10
2019-02-26T18:53:48.114Z,5.43
2019-02-26T18:56:21.113Z,6.77
2019-02-26T18:58:54.933Z,6.00
2019-02-26T19:01:28.480Z,7.23
2019-02-26T19:04:02.514Z,9.00
2019-02-26T19:06:37.586Z,20.33
2019-02-26T19:09:12.285Z,26.03
2019-02-26T19:11:45.076Z,13.90
2019-02-26T19:14:17.935Z,14.33
2019-02-26T19:16:54.130Z,13.07
2019-02-26T19:19:27.421Z,11.20
2019-02-26T19:22:01.308Z,5.70
2019-02-26T19:24:35.870Z,5.37
2019-02-26T19:27:09.483Z,10.67
2019-02-26T19:29:42.799Z,21.23
2019-02-26T19:32:19.883Z,36.77
2019-02-26T19:34:53.805Z,21.47
2019-02-26T19:37:27.650Z,16.17
2019-02-26T19:40:05.730Z,13.17
2019-02-26T19:42:38.589Z,10.83
2019-02-26T19:45:14.147Z,6.90
2019-02-26T19:47:47.209Z,9.10
2019-02-26T19:50:20.870Z,21.70
2019-02-26T19:52:57.197Z,14.07
2019-02-26T19:55:33.381Z,9.60
2019-02-26T19:58:07.119Z,12.77
2019-02-26T20:00:41.170Z,10.23
2019-02-26T20:03:14.692Z,7.87
2019-02-26T20:05:48.014Z,7.67
2019-02-26T20:08:21.144Z,7.57
2019-02-26T20:10:54.970Z,7.37
2019-02-26T20:13:27.802Z,6.63
2019-02-26T20:16:00.268Z,5.97
2019-02-26T20:18:32.918Z,6.87
2019-02-26T20:21:06.925Z,7.60
2019-02-26T20:23:42.068Z,10.20
2019-02-26T20:26:16.529Z,14.37
2019-02-26T20:28:48.732Z,10.43
2019-02-26T20:31:21.886Z,10.17
2019-02-26T20:33:56.349Z,46.07
2019-02-26T20:36:29.835Z,10.57
2019-02-26T20:39:07.674Z,21.33
2019-02-26T20:41:38.877Z,20.20
2019-02-26T20:44:11.401Z,20.87
2019-02-26T20:46:45.627Z,21.17
2019-02-26T20:49:19.891Z,17.60
2019-02-26T20:51:52.811Z,16.73
2019-02-26T20:54:26.171Z,13.83
2019-02-26T20:56:58.570Z,11.67
2019-02-26T20:59:30.799Z,12.10
2019-02-26T21:02:03.439Z,11.57
2019-02-26T21:04:37.551Z,14.67
2019-02-26T21:07:10.331Z,8.70
2019-02-26T21:09:42.867Z,7.87
2019-02-26T21:12:14.971Z,7.83
2019-02-26T21:14:47.686Z,12.35
2019-02-26T21:17:19.850Z,15.55
2019-02-26T21:19:52.238Z,15.40
2019-02-26T21:22:24.574Z,15.05
2019-02-26T21:24:56.983Z,12.80
2019-02-26T21:27:32.301Z,11.03
2019-02-26T21:30:06.048Z,11.53
2019-02-26T21:32:39.305Z,11.40
2019-02-26T21:35:12.375Z,13.22
2019-02-26T21:37:48.899Z,12.50
2019-02-26T21:40:23.294Z,14.45
2019-02-26T21:42:55.725Z,16.42
2019-02-26T21:45:29.267Z,19.67
2019-02-26T21:48:02.764Z,16.77
2019-02-26T21:50:35.582Z,14.15
2019-02-26T21:53:07.410Z,11.07
2019-02-26T21:55:44.282Z,7.12
2019-02-26T21:58:15.040Z,5.83
2019-02-26T22:00:47.434Z,6.33
2019-02-26T22:03:20.275Z,5.92
2019-02-26T22:05:53.059Z,6.87
2019-02-26T22:08:25.957Z,6.60
2019-02-26T22:10:58.120Z,6.92
2019-02-26T22:13:30.483Z,6.75
2019-02-26T22:16:02.415Z,5.90
2019-02-26T22:18:34.455Z,6.12
2019-02-26T22:21:06.383Z,6.20
2019-02-26T22:23:38.848Z,5.90
2019-02-26T22:26:11.288Z,6.60
2019-02-26T22:28:43.946Z,5.72
2019-02-26T22:31:15.792Z,5.75
2019-02-26T22:33:48.135Z,5.28
2019-02-26T22:36:20.213Z,5.70
2019-02-26T22:38:52.359Z,5.28
2019-02-26T22:41:24.670Z,5.47
2019-02-26T22:43:57.258Z,5.08
2019-02-26T22:46:33.660Z,6.28
2019-02-26T22:49:04.163Z,9.05
2019-02-26T22:51:36.211Z,7.95
2019-02-26T22:54:09.832Z,8.85
2019-02-26T22:56:43.470Z,7.28
2019-02-26T22:59:15.767Z,5.78
2019-02-26T23:01:49.411Z,5.35
2019-02-26T23:04:21.314Z,5.62
2019-02-26T23:06:53.641Z,5.67
2019-02-26T23:09:28.212Z,5.65
2019-02-26T23:12:04.828Z,5.75
2019-02-26T23:14:38.755Z,5.12
2019-02-26T23:17:12.199Z,6.33
2019-02-26T23:19:44.893Z,6.30
2019-02-26T23:22:17.144Z,5.87
2019-02-26T23:24:49.017Z,6.28
2019-02-26T23:27:23.202Z,6.08
2019-02-26T23:29:54.974Z,5.97
2019-02-26T23:32:28.972Z,6.08
2019-02-26T23:35:09.915Z,6.15
2019-02-26T23:37:41.828Z,6.12
2019-02-26T23:40:13.987Z,5.35
2019-02-26T23:42:46.287Z,5.03
2019-02-26T23:45:18.934Z,5.25
2019-02-26T23:47:51.124Z,4.78
2019-02-26T23:50:22.747Z,4.60
2019-02-26T23:52:55.519Z,4.47
2019-02-26T23:55:28.111Z,4.85
2019-02-26T23:58:01.010Z,4.92
